Time;durP1;ratioP1;P1;durP2;ratioP2;P2;SDS_P1;SDS_P2;PMS_P1;PMS_P2;Temp;Humidity;BMP_temperature;BMP_pressure;BME280_temperature;BME280_humidity;BME280_pressure;Samples;Min_cycle;Max_cycle;Signal;HPM_P1;HPM_P2
2021/12/14 00:00:39;;;;;;;18.93;10.90;;;7.30;99.90;;;;;;5075324;28;20183;-71
2021/12/14 00:03:07;;;;;;;17.47;10.10;;;7.30;99.90;;;;;;5093445;28;20169;-71
2021/12/14 00:05:34;;;;;;;19.40;11.33;;;7.30;99.90;;;;;;5093525;28;20186;-71
2021/12/14 00:08:02;;;;;;;18.03;10.43;;;7.30;99.90;;;;;;5093312;28;20492;-73
2021/12/14 00:10:49;;;;;;;17.77;11.10;;;7.30;99.90;;;;;;5093686;28;20162;-72
2021/12/14 00:13:31;;;;;;;15.57;9.87;;;7.30;99.90;;;;;;5093288;28;20209;-71
2021/12/14 00:15:58;;;;;;;18.57;10.73;;;7.30;99.90;;;;;;5093510;28;20165;-72
2021/12/14 00:18:25;;;;;;;20.20;11.07;;;7.30;99.90;;;;;;5093252;28;20609;-72
2021/12/14 00:20:56;;;;;;;18.97;10.97;;;7.30;99.90;;;;;;5093656;28;20204;-71
2021/12/14 00:26:12;;;;;;;16.97;10.50;;;7.30;99.90;;;;;;5093419;28;20246;-72
2021/12/14 00:28:38;;;;;;;16.30;10.17;;;7.30;99.90;;;;;;5093553;28;20192;-71
2021/12/14 00:31:09;;;;;;;14.87;9.83;;;7.30;99.90;;;;;;5093884;28;20181;-71
2021/12/14 00:33:37;;;;;;;15.57;9.43;;;7.30;99.90;;;;;;5093286;28;20198;-71
2021/12/14 00:36:08;;;;;;;15.87;9.93;;;7.30;99.90;;;;;;5093181;28;20308;-71
2021/12/14 00:38:35;;;;;;;15.03;10.27;;;7.30;99.90;;;;;;5093475;28;20220;-71
2021/12/14 00:41:08;;;;;;;16.07;10.67;;;7.30;99.90;;;;;;5092271;28;20525;-71
2021/12/14 00:43:34;;;;;;;19.97;11.53;;;7.30;99.90;;;;;;5093396;28;20582;-72
2021/12/14 00:46:01;;;;;;;20.13;10.90;;;7.30;99.90;;;;;;5092975;28;20329;-71
2021/12/14 00:48:27;;;;;;;16.80;10.10;;;7.30;99.90;;;;;;5093264;28;20166;-71
2021/12/14 00:50:58;;;;;;;16.80;10.63;;;7.30;99.90;;;;;;5093049;28;20640;-71
2021/12/14 00:53:24;;;;;;;17.07;9.67;;;7.30;99.90;;;;;;5092654;28;20237;-70
2021/12/14 00:55:52;;;;;;;15.67;10.33;;;7.20;99.90;;;;;;5095897;28;20174;-73
2021/12/14 00:58:19;;;;;;;16.07;9.83;;;7.20;99.90;;;;;;5093821;28;20169;-73
2021/12/14 01:01:00;;;;;;;13.43;9.00;;;7.20;99.90;;;;;;5092968;28;20157;-71
2021/12/14 01:03:29;;;;;;;15.17;8.77;;;7.20;99.90;;;;;;5093446;28;20356;-72
2021/12/14 01:05:56;;;;;;;14.37;8.20;;;7.20;99.90;;;;;;5093167;28;20175;-72
2021/12/14 01:08:27;;;;;;;14.90;9.03;;;7.20;99.90;;;;;;5093093;28;20162;-72
2021/12/14 01:11:01;;;;;;;14.17;8.37;;;7.20;99.90;;;;;;5093126;28;20674;-71
2021/12/14 01:13:30;;;;;;;12.97;8.97;;;7.20;99.90;;;;;;5093184;28;20284;-72
2021/12/14 01:16:14;;;;;;;13.10;7.83;;;7.30;99.90;;;;;;5092813;28;20165;-70
2021/12/14 01:18:47;;;;;;;15.10;8.33;;;7.40;99.90;;;;;;5093619;28;20582;-72
2021/12/14 01:24:34;;;;;;;13.00;7.67;;;7.40;99.90;;;;;;5096786;28;20259;-71
2021/12/14 01:26:58;;;;;;;10.83;7.63;;;7.30;99.90;;;;;;5088620;28;20187;-73
2021/12/14 01:29:23;;;;;;;12.83;8.43;;;7.30;99.90;;;;;;5096503;28;20505;-71
2021/12/14 01:31:51;;;;;;;12.53;7.33;;;7.30;99.90;;;;;;5096827;28;20189;-71
2021/12/14 01:34:22;;;;;;;15.37;7.13;;;7.20;99.90;;;;;;5096708;28;20294;-71
2021/12/14 01:36:54;;;;;;;12.80;7.23;;;7.30;99.90;;;;;;5096869;28;20221;-71
2021/12/14 01:42:24;;;;;;;12.77;7.40;;;7.20;99.90;;;;;;5095960;28;20299;-70
2021/12/14 01:45:01;;;;;;;11.10;6.70;;;7.20;99.90;;;;;;5076475;28;20629;-72
2021/12/14 01:47:34;;;;;;;9.53;6.40;;;7.20;99.90;;;;;;5096648;28;20159;-71
2021/12/14 01:50:00;;;;;;;12.47;7.40;;;7.30;99.90;;;;;;5096497;28;20172;-71
2021/12/14 01:52:31;;;;;;;10.23;6.90;;;7.40;99.90;;;;;;5095623;28;20236;-71
2021/12/14 01:55:16;;;;;;;12.40;7.47;;;7.30;99.90;;;;;;5095925;28;20154;-71
2021/12/14 01:57:42;;;;;;;12.57;7.53;;;7.30;99.90;;;;;;5096184;28;20163;-71
2021/12/14 02:00:14;;;;;;;11.00;7.30;;;7.20;99.90;;;;;;5096216;28;20499;-71
2021/12/14 02:02:42;;;;;;;12.03;7.57;;;7.30;99.90;;;;;;5095854;28;20172;-71
2021/12/14 02:05:32;;;;;;;10.67;7.17;;;7.30;99.90;;;;;;5078397;28;20181;-71
2021/12/14 02:08:00;;;;;;;11.53;6.83;;;7.10;99.90;;;;;;5081840;28;20190;-71
2021/12/14 02:10:31;;;;;;;11.23;7.07;;;7.20;99.90;;;;;;5095983;28;20252;-72
2021/12/14 02:12:57;;;;;;;12.07;7.40;;;7.10;99.90;;;;;;5095558;28;20194;-70
2021/12/14 02:15:31;;;;;;;12.27;7.17;;;7.30;99.90;;;;;;5095907;28;20558;-72
2021/12/14 02:17:59;;;;;;;10.37;6.87;;;7.20;99.90;;;;;;5095560;28;20161;-72
2021/12/14 02:20:30;;;;;;;12.10;6.63;;;7.10;99.90;;;;;;5095996;28;20226;-71
2021/12/14 02:22:57;;;;;;;10.33;6.50;;;7.20;99.90;;;;;;5077058;28;20243;-71
2021/12/14 02:25:23;;;;;;;12.70;7.23;;;7.20;99.90;;;;;;5095717;28;20232;-72
2021/12/14 02:27:51;;;;;;;12.00;6.60;;;7.20;99.90;;;;;;5096039;28;20197;-72
2021/12/14 02:30:22;;;;;;;10.47;6.53;;;7.30;99.90;;;;;;5077654;28;20174;-71
2021/12/14 02:32:48;;;;;;;9.00;6.80;;;7.20;99.90;;;;;;5095255;28;20218;-71
2021/12/14 02:35:18;;;;;;;10.63;6.47;;;7.20;99.90;;;;;;5094895;28;20228;-71
2021/12/14 02:37:57;;;;;;;8.93;6.23;;;7.20;99.90;;;;;;5095460;28;20162;-71
2021/12/14 02:40:53;;;;;;;10.33;6.53;;;7.20;99.90;;;;;;5094895;28;20191;-71
2021/12/14 02:43:44;;;;;;;8.83;5.93;;;7.30;99.90;;;;;;5094645;28;20177;-72
2021/12/14 02:46:27;;;;;;;10.77;6.77;;;7.20;99.90;;;;;;5094912;28;20251;-71
2021/12/14 02:49:00;;;;;;;10.13;6.00;;;7.30;99.90;;;;;;5094817;28;20152;-71
2021/12/14 02:51:35;;;;;;;9.70;5.73;;;7.30;99.90;;;;;;5076886;28;20569;-70
2021/12/14 02:54:05;;;;;;;9.57;5.20;;;7.30;99.90;;;;;;5094894;28;20243;-71
2021/12/14 02:56:34;;;;;;;11.07;4.93;;;7.30;99.90;;;;;;5094896;28;20180;-71
2021/12/14 02:59:12;;;;;;;9.23;5.80;;;7.30;99.90;;;;;;5094871;28;20157;-71
2021/12/14 03:01:41;;;;;;;8.17;4.83;;;7.30;99.90;;;;;;5095147;28;20170;-71
2021/12/14 03:04:08;;;;;;;8.27;4.77;;;7.40;99.90;;;;;;5094288;28;20187;-72
2021/12/14 03:06:45;;;;;;;7.77;4.17;;;7.40;99.90;;;;;;5094888;28;20641;-71
2021/12/14 03:09:33;;;;;;;9.50;5.17;;;7.50;99.90;;;;;;5094791;28;20171;-71
2021/12/14 03:12:15;;;;;;;7.97;4.70;;;7.50;99.90;;;;;;5086742;28;20161;-70
2021/12/14 03:14:52;;;;;;;7.10;4.43;;;7.70;99.90;;;;;;5094502;28;20166;-71
2021/12/14 03:17:18;;;;;;;9.87;5.03;;;7.60;99.90;;;;;;5094905;28;20214;-71
2021/12/14 03:20:06;;;;;;;8.10;4.73;;;7.70;99.90;;;;;;5094485;28;20598;-72
2021/12/14 03:22:38;;;;;;;9.40;4.70;;;7.70;99.90;;;;;;5094053;28;20159;-71
2021/12/14 03:25:08;;;;;;;7.73;4.77;;;7.70;99.90;;;;;;5094149;28;20224;-71
2021/12/14 03:27:38;;;;;;;9.50;4.90;;;7.70;99.90;;;;;;5076269;28;20547;-71
2021/12/14 03:30:18;;;;;;;9.20;5.23;;;7.70;99.90;;;;;;5093964;28;20155;-72
2021/12/14 03:32:44;;;;;;;8.23;5.10;;;7.70;99.90;;;;;;5094415;28;20209;-72
2021/12/14 03:35:10;;;;;;;10.03;5.17;;;7.70;99.90;;;;;;5093498;28;20702;-70
2021/12/14 03:37:37;;;;;;;9.47;4.60;;;7.80;99.90;;;;;;5093604;28;20159;-71
2021/12/14 03:40:03;;;;;;;10.50;5.10;;;7.70;99.90;;;;;;5093898;28;20232;-71
2021/12/14 03:42:37;;;;;;;7.23;4.47;;;7.80;99.90;;;;;;5093101;28;20173;-71
2021/12/14 03:45:17;;;;;;;8.53;4.30;;;7.70;99.90;;;;;;5093928;28;20162;-70
2021/12/14 03:47:49;;;;;;;5.97;4.00;;;7.70;99.90;;;;;;5093612;28;20235;-71
2021/12/14 03:50:22;;;;;;;6.90;3.90;;;7.70;99.90;;;;;;5094152;28;20167;-72
2021/12/14 03:52:48;;;;;;;6.77;3.80;;;7.70;99.90;;;;;;5093536;28;20219;-71
2021/12/14 03:55:24;;;;;;;7.53;3.60;;;7.70;99.90;;;;;;5094047;28;20169;-72
2021/12/14 03:57:50;;;;;;;6.23;3.67;;;7.60;99.90;;;;;;5093752;28;20238;-71
2021/12/14 04:00:22;;;;;;;5.47;3.53;;;7.70;99.90;;;;;;5093439;28;20602;-70
2021/12/14 04:02:49;;;;;;;8.00;4.17;;;7.70;99.90;;;;;;5093187;28;20165;-71
2021/12/14 04:05:15;;;;;;;5.53;3.40;;;7.70;99.90;;;;;;5093613;28;20257;-71
2021/12/14 04:07:44;;;;;;;5.43;3.20;;;7.60;99.90;;;;;;5093249;28;20213;-71
2021/12/14 04:10:21;;;;;;;5.27;3.37;;;7.60;99.90;;;;;;5093640;28;20268;-71
2021/12/14 04:12:46;;;;;;;4.30;2.77;;;7.70;99.90;;;;;;5093457;28;20195;-70
2021/12/14 04:15:12;;;;;;;5.40;2.80;;;7.60;99.90;;;;;;5092966;28;20174;-72
2021/12/14 04:17:39;;;;;;;5.30;3.23;;;7.70;99.90;;;;;;5093465;28;20211;-71
2021/12/14 04:20:18;;;;;;;6.07;3.00;;;7.60;99.90;;;;;;5093126;28;20238;-71
2021/12/14 04:22:49;;;;;;;5.03;2.77;;;7.60;99.90;;;;;;5092932;28;20257;-72
2021/12/14 04:25:22;;;;;;;3.57;2.60;;;7.60;99.90;;;;;;5093662;28;20168;-72
2021/12/14 04:27:50;;;;;;;4.27;3.20;;;7.60;99.90;;;;;;5092732;28;20296;-71
2021/12/14 04:30:19;;;;;;;3.57;2.50;;;7.60;99.90;;;;;;5093026;28;20170;-72
2021/12/14 04:32:47;;;;;;;3.73;2.93;;;7.60;99.90;;;;;;5093560;28;20213;-72
2021/12/14 04:35:13;;;;;;;4.37;2.83;;;7.60;99.90;;;;;;5092997;28;20222;-71
2021/12/14 04:37:41;;;;;;;5.20;3.27;;;7.60;99.90;;;;;;5093296;28;20166;-71
2021/12/14 04:40:37;;;;;;;3.70;2.80;;;7.60;99.90;;;;;;5093157;28;20170;-71
2021/12/14 04:51:58;;;;;;;3.90;3.00;;;7.60;99.90;;;;;;5093226;28;20556;-71
2021/12/14 04:54:46;;;;;;;3.50;2.47;;;7.60;99.90;;;;;;5094492;28;20289;-70
2021/12/14 04:57:30;;;;;;;4.33;2.60;;;7.50;99.90;;;;;;5086724;28;20190;-71
2021/12/14 05:00:08;;;;;;;4.47;2.70;;;7.50;99.90;;;;;;5097049;28;20594;-71
2021/12/14 05:02:34;;;;;;;4.90;2.83;;;7.60;99.90;;;;;;5097200;28;20249;-72
2021/12/14 05:05:00;;;;;;;7.80;4.50;;;7.60;99.90;;;;;;5096427;28;20197;-72
2021/12/14 05:10:01;;;;;;;5.07;3.80;;;7.60;99.90;;;;;;5096922;28;20156;-72
2021/12/14 05:12:31;;;;;;;6.73;3.40;;;7.60;99.90;;;;;;5096345;28;20297;-71
2021/12/14 05:14:59;;;;;;;3.43;2.47;;;7.50;99.90;;;;;;5096729;28;20158;-71
2021/12/14 05:17:31;;;;;;;3.90;2.47;;;7.50;99.90;;;;;;5096859;28;20249;-70
2021/12/14 05:19:56;;;;;;;5.30;3.10;;;7.50;99.90;;;;;;5096522;28;20155;-70
2021/12/14 05:22:26;;;;;;;5.83;3.60;;;7.40;99.90;;;;;;5096362;28;20218;-70
2021/12/14 05:25:02;;;;;;;9.13;3.80;;;7.40;99.90;;;;;;5096338;28;20490;-71
2021/12/14 05:27:38;;;;;;;6.97;3.70;;;7.30;99.90;;;;;;5096508;28;20158;-71
2021/12/14 05:30:22;;;;;;;5.97;3.57;;;7.30;99.90;;;;;;5096242;28;20616;-71
2021/12/14 05:32:49;;;;;;;6.40;3.70;;;7.30;99.90;;;;;;5096634;28;20210;-72
2021/12/14 05:35:18;;;;;;;5.27;3.17;;;7.30;99.90;;;;;;5096940;28;20229;-72
2021/12/14 05:37:49;;;;;;;6.50;3.90;;;7.30;99.90;;;;;;5078000;28;20554;-71
2021/12/14 05:40:58;;;;;;;11.60;6.13;;;7.30;99.90;;;;;;5096404;28;20159;-70
2021/12/14 05:43:16;;;;;;;9.73;5.80;;;7.30;99.90;;;;;;5092341;28;20261;-72
2021/12/14 05:45:46;;;;;;;8.50;5.00;;;7.30;99.90;;;;;;5096773;28;20171;-72
2021/12/14 05:48:18;;;;;;;7.57;5.20;;;7.30;99.90;;;;;;5096231;28;20172;-72
2021/12/14 05:50:47;;;;;;;5.80;4.20;;;7.30;99.90;;;;;;5096194;28;20498;-72
2021/12/14 05:53:27;;;;;;;5.47;3.77;;;7.20;99.90;;;;;;5095853;28;20202;-72
2021/12/14 05:55:54;;;;;;;6.37;3.90;;;7.20;99.90;;;;;;5095797;28;20245;-72
2021/12/14 05:58:23;;;;;;;5.33;3.53;;;7.20;99.90;;;;;;5095886;28;20674;-71
2021/12/14 06:00:52;;;;;;;5.87;3.77;;;7.20;99.90;;;;;;5095880;28;20162;-72
2021/12/14 06:03:25;;;;;;;5.57;3.67;;;7.10;99.90;;;;;;5096295;28;20187;-71
2021/12/14 06:05:52;;;;;;;8.30;4.90;;;7.20;99.90;;;;;;5095401;28;20306;-71
2021/12/14 06:08:21;;;;;;;15.57;8.70;;;7.20;99.90;;;;;;5095980;28;20170;-71
2021/12/14 06:10:47;;;;;;;10.73;6.80;;;7.20;99.90;;;;;;5096267;28;20185;-71
2021/12/14 06:13:16;;;;;;;6.87;3.77;;;7.20;99.90;;;;;;5096531;28;20323;-72
2021/12/14 06:15:42;;;;;;;3.50;2.40;;;7.30;99.90;;;;;;5077539;28;20183;-70
2021/12/14 06:18:07;;;;;;;4.10;2.80;;;7.30;99.90;;;;;;5096193;28;20219;-70
2021/12/14 06:20:33;;;;;;;4.07;3.00;;;7.30;99.90;;;;;;5095725;28;20267;-71
2021/12/14 06:22:59;;;;;;;12.43;6.00;;;7.40;99.90;;;;;;5097479;28;20180;-72
2021/12/14 06:25:28;;;;;;;9.80;6.10;;;7.40;99.90;;;;;;5096374;28;20612;-71
2021/12/14 06:27:57;;;;;;;7.17;4.57;;;7.30;99.90;;;;;;5096314;28;20168;-72
2021/12/14 06:30:29;;;;;;;6.70;3.47;;;7.30;99.90;;;;;;5095833;28;20151;-72
2021/12/14 06:33:05;;;;;;;3.70;2.50;;;7.40;99.90;;;;;;5076726;28;20675;-71
2021/12/14 06:35:36;;;;;;;6.70;2.47;;;7.30;99.90;;;;;;5096216;28;20232;-71
2021/12/14 06:38:27;;;;;;;4.70;3.23;;;7.30;99.90;;;;;;5097829;28;20167;-71
2021/12/14 06:41:18;;;;;;;3.93;2.77;;;7.30;99.90;;;;;;5096759;28;20177;-71
2021/12/14 06:43:52;;;;;;;4.23;3.13;;;7.30;99.90;;;;;;5095618;28;20230;-71
2021/12/14 06:46:30;;;;;;;3.27;2.50;;;7.30;99.90;;;;;;5095838;28;20163;-71
2021/12/14 06:49:12;;;;;;;5.20;2.77;;;7.40;99.90;;;;;;5087742;28;20473;-71
2021/12/14 06:51:44;;;;;;;2.60;2.00;;;7.40;99.90;;;;;;5096683;28;20160;-71
2021/12/14 06:54:14;;;;;;;3.03;2.30;;;7.30;99.90;;;;;;5096106;28;20202;-71
2021/12/14 06:56:40;;;;;;;2.73;2.37;;;7.40;99.90;;;;;;5096873;28;20192;-70
2021/12/14 06:59:15;;;;;;;5.40;2.60;;;7.40;99.90;;;;;;5096098;28;20147;-70
2021/12/14 07:01:42;;;;;;;2.30;2.00;;;7.40;99.90;;;;;;5096057;28;20169;-70
2021/12/14 07:04:14;;;;;;;2.80;2.23;;;7.40;99.90;;;;;;5096878;28;20591;-71
2021/12/14 07:06:55;;;;;;;2.70;2.30;;;7.40;99.90;;;;;;5096256;28;20166;-70
2021/12/14 07:09:28;;;;;;;3.63;2.10;;;7.40;99.90;;;;;;5095939;28;20174;-71
2021/12/14 07:12:05;;;;;;;3.23;2.20;;;7.40;99.90;;;;;;5069062;28;20638;-70
2021/12/14 07:14:31;;;;;;;3.73;2.20;;;7.40;99.90;;;;;;5095445;28;20190;-70
2021/12/14 07:17:07;;;;;;;3.37;2.30;;;7.40;99.90;;;;;;5095646;28;20244;-70
2021/12/14 07:20:03;;;;;;;3.50;2.63;;;7.50;99.90;;;;;;5095682;28;20184;-70
2021/12/14 07:22:45;;;;;;;3.30;2.47;;;7.50;99.90;;;;;;5097160;28;20199;-70
2021/12/14 07:25:12;;;;;;;3.60;2.90;;;7.50;99.90;;;;;;5098568;28;20163;-70
2021/12/14 07:27:40;;;;;;;3.27;2.57;;;7.50;99.90;;;;;;5101199;28;20169;-70
2021/12/14 07:30:32;;;;;;;8.50;3.67;;;7.50;99.90;;;;;;5099269;28;20628;-70
2021/12/14 07:33:08;;;;;;;4.33;3.13;;;7.40;99.90;;;;;;5081992;28;20493;-72
2021/12/14 07:35:55;;;;;;;3.97;2.50;;;7.50;99.90;;;;;;5099871;28;20221;-70
2021/12/14 07:38:46;;;;;;;6.20;2.73;;;7.60;99.90;;;;;;5098875;28;20559;-70
2021/12/14 07:41:23;;;;;;;3.43;2.67;;;7.70;99.90;;;;;;5097302;28;20171;-70
2021/12/14 07:43:51;;;;;;;4.07;2.57;;;7.60;99.90;;;;;;5094734;28;20185;-70
2021/12/14 07:46:26;;;;;;;6.20;3.00;;;7.60;99.90;;;;;;5093897;28;20166;-71
2021/12/14 07:48:59;;;;;;;6.57;3.00;;;7.60;99.90;;;;;;5093934;28;20171;-70
2021/12/14 07:51:28;;;;;;;3.27;2.10;;;7.60;99.90;;;;;;5093727;28;20170;-70
2021/12/14 07:53:59;;;;;;;3.40;2.50;;;7.60;99.90;;;;;;5093913;28;20199;-70
2021/12/14 07:56:27;;;;;;;2.40;1.80;;;7.50;99.90;;;;;;5093882;28;20159;-70
2021/12/14 07:58:54;;;;;;;2.97;2.37;;;7.60;99.90;;;;;;5093712;28;20165;-70
2021/12/14 08:01:20;;;;;;;2.83;2.17;;;7.50;99.90;;;;;;5076012;28;20205;-70
2021/12/14 08:03:46;;;;;;;5.53;2.40;;;7.60;99.90;;;;;;5094175;28;20606;-70
2021/12/14 08:06:14;;;;;;;2.57;2.00;;;7.50;99.90;;;;;;5075340;28;20197;-72
2021/12/14 08:08:44;;;;;;;3.53;2.57;;;7.60;99.90;;;;;;5093744;28;20260;-70
2021/12/14 08:14:09;;;;;;;3.50;2.53;;;7.60;99.90;;;;;;5093236;28;20195;-69
2021/12/14 08:16:58;;;;;;;3.57;2.60;;;7.60;99.90;;;;;;5093377;28;20190;-70
2021/12/14 08:19:34;;;;;;;3.30;2.60;;;7.60;99.90;;;;;;5093411;28;20188;-69
2021/12/14 08:22:05;;;;;;;3.40;2.47;;;7.60;99.90;;;;;;5093611;28;20158;-71
2021/12/14 08:24:31;;;;;;;3.07;2.73;;;7.60;99.90;;;;;;5093448;28;20351;-70
2021/12/14 08:26:59;;;;;;;5.17;3.77;;;7.60;99.90;;;;;;5093362;28;20154;-70
2021/12/14 08:29:29;;;;;;;4.47;3.10;;;7.70;99.90;;;;;;5093225;28;20163;-71
2021/12/14 08:32:11;;;;;;;3.30;2.57;;;7.70;99.90;;;;;;5075721;28;20185;-72
2021/12/14 08:34:46;;;;;;;4.40;3.23;;;7.60;99.90;;;;;;5093127;28;20495;-71
2021/12/14 08:37:16;;;;;;;7.97;3.63;;;7.70;99.90;;;;;;5094063;28;20177;-70
2021/12/14 08:40:00;;;;;;;5.63;2.90;;;7.60;99.90;;;;;;5093169;28;20161;-71
2021/12/14 08:42:36;;;;;;;9.00;4.77;;;7.70;99.90;;;;;;5093030;28;20213;-70
2021/12/14 08:45:24;;;;;;;6.07;3.53;;;7.60;99.90;;;;;;5093334;28;20154;-69
2021/12/14 08:48:11;;;;;;;8.53;3.50;;;7.70;99.90;;;;;;5093727;28;20229;-70
2021/12/14 08:50:53;;;;;;;10.27;5.80;;;7.70;99.90;;;;;;5081590;28;20203;-70
2021/12/14 08:53:21;;;;;;;5.80;4.37;;;7.60;99.90;;;;;;5075174;28;20523;-71
2021/12/14 08:55:50;;;;;;;5.60;4.17;;;7.60;99.90;;;;;;5074581;28;20197;-70
2021/12/14 08:58:18;;;;;;;9.97;5.00;;;7.70;99.90;;;;;;5093180;28;20166;-70
2021/12/14 09:00:48;;;;;;;7.77;4.70;;;7.70;99.90;;;;;;5093645;28;20249;-71
2021/12/14 09:03:24;;;;;;;21.90;9.33;;;7.80;99.90;;;;;;5092999;28;20177;-71
2021/12/14 09:05:51;;;;;;;11.70;5.60;;;7.80;99.90;;;;;;5093909;28;20212;-70
2021/12/14 09:08:20;;;;;;;9.37;4.83;;;7.70;99.90;;;;;;5093273;28;20190;-70
2021/12/14 09:10:48;;;;;;;5.37;3.50;;;7.80;99.90;;;;;;5093141;28;20248;-70
2021/12/14 09:13:15;;;;;;;9.77;3.83;;;7.80;99.90;;;;;;5088684;28;20221;-71
2021/12/14 09:15:46;;;;;;;5.57;3.73;;;7.80;99.90;;;;;;5093349;28;20178;-70
2021/12/14 09:18:14;;;;;;;9.37;3.73;;;7.80;99.90;;;;;;5093441;28;20174;-70
2021/12/14 09:20:44;;;;;;;6.80;4.40;;;7.80;99.90;;;;;;5093858;28;20546;-71
2021/12/14 09:23:18;;;;;;;9.00;4.27;;;7.70;99.90;;;;;;5094003;28;20166;-70
2021/12/14 09:25:46;;;;;;;8.07;4.53;;;7.70;99.90;;;;;;5093791;28;20166;-70
2021/12/14 09:28:13;;;;;;;6.13;5.00;;;7.80;99.90;;;;;;5092961;28;20173;-70
2021/12/14 09:30:44;;;;;;;10.77;6.93;;;7.80;99.90;;;;;;5092554;28;20505;-70
2021/12/14 09:33:12;;;;;;;7.43;5.20;;;7.80;99.90;;;;;;5092786;28;20350;-70
2021/12/14 09:35:39;;;;;;;8.07;5.10;;;7.80;99.90;;;;;;5093257;28;20239;-70
2021/12/14 09:38:10;;;;;;;7.13;4.60;;;7.90;99.90;;;;;;5092688;28;20236;-70
2021/12/14 09:40:41;;;;;;;10.07;5.60;;;7.80;99.90;;;;;;5093172;28;20455;-70
2021/12/14 09:43:07;;;;;;;12.67;6.27;;;7.90;99.90;;;;;;5096304;28;20162;-71
2021/12/14 09:45:43;;;;;;;11.10;5.33;;;7.90;99.90;;;;;;5096732;28;20238;-71
2021/12/14 09:48:12;;;;;;;8.80;5.43;;;7.90;99.90;;;;;;5097129;28;20166;-70
2021/12/14 09:50:39;;;;;;;8.27;4.67;;;8.00;99.90;;;;;;5078962;28;20573;-71
2021/12/14 09:53:08;;;;;;;6.47;4.80;;;8.00;99.90;;;;;;5096211;28;20190;-69
2021/12/14 09:55:40;;;;;;;9.63;6.10;;;7.90;99.90;;;;;;5096356;28;20236;-71
2021/12/14 09:58:11;;;;;;;8.67;5.70;;;7.90;99.90;;;;;;5096340;28;20219;-70
2021/12/14 10:00:44;;;;;;;7.07;4.80;;;7.90;99.90;;;;;;5099037;28;20166;-69
2021/12/14 10:03:10;;;;;;;6.90;5.07;;;7.90;99.90;;;;;;5099152;28;20181;-70
2021/12/14 10:06:03;;;;;;;6.10;4.17;;;8.00;99.90;;;;;;5080870;28;20181;-70
2021/12/14 10:08:36;;;;;;;5.27;4.03;;;7.90;99.90;;;;;;5099471;28;20155;-70
2021/12/14 10:11:11;;;;;;;6.47;4.47;;;8.00;99.90;;;;;;5096725;28;20562;-70
2021/12/14 10:13:42;;;;;;;8.33;5.27;;;7.90;99.90;;;;;;5096085;28;20221;-71
2021/12/14 10:16:09;;;;;;;15.10;9.90;;;7.90;99.90;;;;;;5096073;28;20189;-72
2021/12/14 10:18:37;;;;;;;9.40;6.20;;;8.00;99.90;;;;;;5095986;28;20159;-70
2021/12/14 10:21:13;;;;;;;8.43;5.80;;;7.90;99.90;;;;;;5095570;28;20228;-70
2021/12/14 10:23:40;;;;;;;7.37;4.87;;;7.90;99.90;;;;;;5095784;28;20192;-70
2021/12/14 10:26:07;;;;;;;9.10;5.37;;;7.90;99.90;;;;;;5096118;28;20158;-70
2021/12/14 10:28:36;;;;;;;9.77;5.67;;;7.80;99.90;;;;;;5095407;28;20162;-70
2021/12/14 10:31:07;;;;;;;10.17;5.30;;;7.80;99.90;;;;;;5095337;28;20246;-71
2021/12/14 10:33:34;;;;;;;6.63;4.60;;;7.80;99.90;;;;;;5094755;28;20646;-71
2021/12/14 10:36:11;;;;;;;16.43;6.87;;;7.90;99.90;;;;;;5095563;28;20217;-71
2021/12/14 10:38:50;;;;;;;8.07;5.77;;;7.90;99.90;;;;;;5095389;28;20260;-70
2021/12/14 10:44:04;;;;;;;5.97;4.50;;;8.00;99.90;;;;;;5094821;28;20228;-71
2021/12/14 10:46:32;;;;;;;7.73;5.50;;;8.00;99.90;;;;;;5095620;28;20165;-71
2021/12/14 10:48:59;;;;;;;6.23;4.67;;;8.00;99.90;;;;;;5094885;28;20515;-70
2021/12/14 10:51:30;;;;;;;8.63;5.07;;;8.00;99.90;;;;;;5094850;28;20170;-70
2021/12/14 10:53:59;;;;;;;7.30;5.27;;;8.00;99.90;;;;;;5094715;28;20286;-70
2021/12/14 10:56:30;;;;;;;11.73;6.13;;;8.00;99.90;;;;;;5095021;28;20598;-70
2021/12/14 10:58:59;;;;;;;9.17;5.70;;;8.00;99.90;;;;;;5094749;28;20166;-70
2021/12/14 11:01:31;;;;;;;9.83;6.80;;;8.00;99.90;;;;;;5094900;28;20210;-70
2021/12/14 11:04:02;;;;;;;10.70;6.90;;;8.10;99.90;;;;;;5086665;28;20279;-70
2021/12/14 11:06:33;;;;;;;11.53;6.23;;;8.10;99.90;;;;;;5076778;28;20175;-71
2021/12/14 11:11:41;;;;;;;11.80;5.97;;;8.30;99.90;;;;;;5094042;28;20238;-69
2021/12/14 11:14:12;;;;;;;8.17;5.70;;;8.30;99.90;;;;;;5094041;28;20533;-70
2021/12/14 11:19:47;;;;;;;11.33;6.57;;;8.20;99.90;;;;;;5094093;28;20202;-69
2021/12/14 11:22:25;;;;;;;11.73;6.67;;;8.20;99.90;;;;;;5094340;28;20177;-67
2021/12/14 11:24:56;;;;;;;9.20;5.90;;;8.20;99.90;;;;;;5094282;28;20155;-67
2021/12/14 11:27:25;;;;;;;9.07;6.37;;;8.20;99.90;;;;;;5094016;28;20167;-68
2021/12/14 11:30:20;;;;;;;10.77;6.37;;;8.30;99.90;;;;;;5094033;28;20170;-68
2021/12/14 11:33:00;;;;;;;7.53;5.43;;;8.30;99.90;;;;;;5076043;28;20289;-68
2021/12/14 11:35:28;;;;;;;7.23;5.60;;;8.30;99.90;;;;;;5093877;28;20294;-68
2021/12/14 11:37:56;;;;;;;7.37;5.50;;;8.30;99.90;;;;;;5094110;28;20158;-68
2021/12/14 11:40:23;;;;;;;8.87;5.60;;;8.20;99.90;;;;;;5094475;28;20168;-70
2021/12/14 11:42:51;;;;;;;6.00;4.67;;;8.20;99.90;;;;;;5094530;28;20174;-71
2021/12/14 11:45:21;;;;;;;8.10;5.40;;;8.30;99.90;;;;;;5093651;28;20174;-71
2021/12/14 11:47:54;;;;;;;8.10;5.73;;;8.20;99.90;;;;;;5094311;28;20194;-70
2021/12/14 11:50:37;;;;;;;7.43;5.33;;;8.30;99.90;;;;;;5075361;28;20182;-70
2021/12/14 11:53:05;;;;;;;7.03;4.93;;;8.30;99.90;;;;;;5094365;28;20251;-70
2021/12/14 11:55:43;;;;;;;8.60;5.47;;;8.30;99.90;;;;;;5093704;28;20621;-70
2021/12/14 11:58:30;;;;;;;10.03;5.60;;;8.20;99.90;;;;;;5093645;28;20578;-71
2021/12/14 12:01:14;;;;;;;7.30;4.90;;;8.30;99.90;;;;;;5093602;28;20567;-70
2021/12/14 12:04:08;;;;;;;8.10;5.00;;;8.20;99.90;;;;;;5093062;28;20214;-71
2021/12/14 12:09:35;;;;;;;7.50;5.17;;;8.20;99.90;;;;;;5082505;28;20174;-69
2021/12/14 12:12:03;;;;;;;7.67;4.93;;;8.20;99.90;;;;;;5093850;28;20159;-70
2021/12/14 12:14:37;;;;;;;9.53;5.77;;;8.20;99.90;;;;;;5075269;28;20210;-70
2021/12/14 12:17:37;;;;;;;8.33;4.80;;;8.20;99.90;;;;;;5093926;28;20185;-71
2021/12/14 12:20:27;;;;;;;7.80;5.17;;;8.10;99.90;;;;;;5089202;28;20189;-69
2021/12/14 12:23:01;;;;;;;10.27;5.20;;;8.20;99.90;;;;;;5093709;28;20155;-70
2021/12/14 12:25:32;;;;;;;7.93;5.03;;;8.20;99.90;;;;;;5094231;28;20169;-72
2021/12/14 12:28:03;;;;;;;7.20;4.40;;;8.20;99.90;;;;;;5093310;28;20231;-70
2021/12/14 12:30:51;;;;;;;6.33;4.43;;;8.10;99.90;;;;;;5093868;28;20178;-73
2021/12/14 12:33:37;;;;;;;9.23;6.10;;;8.10;99.90;;;;;;5093880;28;20207;-71
2021/12/14 12:36:09;;;;;;;8.60;5.70;;;8.10;99.90;;;;;;5094418;28;20221;-71
2021/12/14 12:38:41;;;;;;;7.43;5.33;;;8.10;99.90;;;;;;5092896;28;20171;-71
2021/12/14 12:41:33;;;;;;;7.20;4.57;;;8.10;99.90;;;;;;5093603;28;20250;-70
2021/12/14 12:44:19;;;;;;;7.90;5.00;;;8.10;99.90;;;;;;5092904;28;20248;-70
2021/12/14 12:46:55;;;;;;;7.30;4.67;;;8.20;99.90;;;;;;5092849;28;20176;-70
2021/12/14 12:49:41;;;;;;;8.77;5.93;;;8.10;99.90;;;;;;5092781;28;20159;-70
2021/12/14 12:52:20;;;;;;;9.37;5.47;;;8.10;99.90;;;;;;5075414;28;20173;-71
2021/12/14 12:55:09;;;;;;;8.03;5.73;;;8.10;99.90;;;;;;5075686;28;20645;-69
2021/12/14 12:57:43;;;;;;;7.07;4.87;;;8.20;99.90;;;;;;5092951;28;20159;-69
2021/12/14 13:00:21;;;;;;;7.83;5.23;;;8.10;99.90;;;;;;5075076;28;20170;-71
2021/12/14 13:02:53;;;;;;;8.90;4.93;;;8.10;99.90;;;;;;5092984;28;20661;-70
2021/12/14 13:05:40;;;;;;;7.27;4.93;;;8.20;99.90;;;;;;5093234;28;20169;-71
2021/12/14 13:08:26;;;;;;;7.73;5.00;;;8.20;99.90;;;;;;5093226;28;20170;-71
2021/12/14 13:10:54;;;;;;;7.47;5.20;;;8.10;99.90;;;;;;5093449;28;20207;-70
2021/12/14 13:13:26;;;;;;;6.33;5.00;;;8.20;99.90;;;;;;5093243;28;20206;-73
2021/12/14 13:16:03;;;;;;;6.10;4.83;;;8.10;99.90;;;;;;5095117;28;20172;-71
2021/12/14 13:18:31;;;;;;;6.77;4.80;;;8.10;99.90;;;;;;5096968;28;20499;-70
2021/12/14 13:21:09;;;;;;;10.20;5.77;;;8.10;99.90;;;;;;5097278;28;20165;-71
2021/12/14 13:23:53;;;;;;;7.07;4.90;;;8.10;99.90;;;;;;5097171;28;20189;-72
2021/12/14 13:26:23;;;;;;;9.30;6.60;;;8.10;99.90;;;;;;5097023;28;20168;-70
2021/12/14 13:28:51;;;;;;;8.70;5.80;;;8.10;99.90;;;;;;5096601;28;20172;-71
2021/12/14 13:31:37;;;;;;;7.43;5.73;;;8.20;99.90;;;;;;5097071;28;20593;-70
2021/12/14 13:34:07;;;;;;;6.97;4.50;;;8.20;99.90;;;;;;5096383;28;20285;-70
2021/12/14 13:36:34;;;;;;;13.77;5.47;;;8.20;99.90;;;;;;5097360;28;20229;-71
2021/12/14 13:39:00;;;;;;;7.23;5.57;;;8.10;99.90;;;;;;5097129;28;20240;-71
2021/12/14 13:41:56;;;;;;;43.00;16.13;;;8.10;99.90;;;;;;5078509;28;20227;-71
2021/12/14 13:44:22;;;;;;;10.37;6.53;;;8.10;99.90;;;;;;5096588;28;20170;-70
2021/12/14 13:46:48;;;;;;;11.07;5.90;;;8.10;99.90;;;;;;5096519;28;20159;-71
2021/12/14 13:49:14;;;;;;;9.03;5.63;;;8.00;99.90;;;;;;5096195;28;20166;-70
2021/12/14 13:51:40;;;;;;;9.03;6.00;;;8.00;99.90;;;;;;5077980;28;20588;-70
2021/12/14 13:54:06;;;;;;;7.50;5.47;;;8.00;99.90;;;;;;5096483;28;20202;-71
2021/12/14 13:56:36;;;;;;;5.90;4.60;;;8.10;99.90;;;;;;5096254;28;20262;-70